sensor_id;sensor_type;location;lat;lon;timestamp;temperature;humidity
31575;DHT22;18182;1.328;103.810;2022-12-29T00:01:52;28.20;99.90
31575;DHT22;18182;1.328;103.810;2022-12-29T00:04:18;28.20;99.90
31575;DHT22;18182;1.328;103.810;2022-12-29T00:06:45;28.20;99.90
31575;DHT22;18182;1.328;103.810;2022-12-29T00:09:11;28.20;99.90
31575;DHT22;18182;1.328;103.810;2022-12-29T00:11:38;28.20;99.90
31575;DHT22;18182;1.328;103.810;2022-12-29T00:14:04;28.20;99.90
31575;DHT22;18182;1.328;103.810;2022-12-29T00:16:48;28.20;99.90
31575;DHT22;18182;1.328;103.810;2022-12-29T00:19:14;28.30;99.90
31575;DHT22;18182;1.328;103.810;2022-12-29T00:21:59;28.30;99.90
31575;DHT22;18182;1.328;103.810;2022-12-29T00:24:44;28.30;99.90
31575;DHT22;18182;1.328;103.810;2022-12-29T00:27:28;28.30;99.90
31575;DHT22;18182;1.328;103.810;2022-12-29T00:30:17;28.40;99.90
31575;DHT22;18182;1.328;103.810;2022-12-29T00:33:09;28.40;99.90
31575;DHT22;18182;1.328;103.810;2022-12-29T00:36:01;28.40;99.90
31575;DHT22;18182;1.328;103.810;2022-12-29T00:38:29;28.40;99.90
31575;DHT22;18182;1.328;103.810;2022-12-29T00:41:15;28.40;99.90
31575;DHT22;18182;1.328;103.810;2022-12-29T00:43:59;28.40;99.90
31575;DHT22;18182;1.328;103.810;2022-12-29T00:46:34;28.40;99.90
31575;DHT22;18182;1.328;103.810;2022-12-29T00:49:00;28.40;99.90
31575;DHT22;18182;1.328;103.810;2022-12-29T00:51:45;28.40;99.90
31575;DHT22;18182;1.328;103.810;2022-12-29T00:54:11;28.40;99.90
31575;DHT22;18182;1.328;103.810;2022-12-29T00:56:38;28.40;99.90
31575;DHT22;18182;1.328;103.810;2022-12-29T00:59:05;28.40;99.90
31575;DHT22;18182;1.328;103.810;2022-12-29T01:01:32;28.40;99.90
31575;DHT22;18182;1.328;103.810;2022-12-29T01:03:58;28.40;99.90
31575;DHT22;18182;1.328;103.810;2022-12-29T01:06:24;28.50;99.90
31575;DHT22;18182;1.328;103.810;2022-12-29T01:08:50;28.50;99.90
31575;DHT22;18182;1.328;103.810;2022-12-29T01:11:40;28.50;99.90
31575;DHT22;18182;1.328;103.810;2022-12-29T01:14:06;28.50;99.90
31575;DHT22;18182;1.328;103.810;2022-12-29T01:16:32;28.50;99.90
31575;DHT22;18182;1.328;103.810;2022-12-29T01:18:59;28.50;99.90
31575;DHT22;18182;1.328;103.810;2022-12-29T01:21:25;28.50;99.90
31575;DHT22;18182;1.328;103.810;2022-12-29T01:23:51;28.40;99.90
31575;DHT22;18182;1.328;103.810;2022-12-29T01:26:18;28.40;99.90
31575;DHT22;18182;1.328;103.810;2022-12-29T01:28:44;28.30;99.90
31575;DHT22;18182;1.328;103.810;2022-12-29T01:31:11;28.30;99.90
31575;DHT22;18182;1.328;103.810;2022-12-29T01:33:37;28.30;99.90
31575;DHT22;18182;1.328;103.810;2022-12-29T01:36:04;28.30;99.90
31575;DHT22;18182;1.328;103.810;2022-12-29T01:38:32;28.30;99.90
31575;DHT22;18182;1.328;103.810;2022-12-29T01:40:58;28.30;99.90
31575;DHT22;18182;1.328;103.810;2022-12-29T01:46:19;28.40;99.90
31575;DHT22;18182;1.328;103.810;2022-12-29T01:48:50;28.40;99.90
31575;DHT22;18182;1.328;103.810;2022-12-29T01:51:17;28.40;99.90
31575;DHT22;18182;1.328;103.810;2022-12-29T01:53:43;28.50;99.90
31575;DHT22;18182;1.328;103.810;2022-12-29T01:56:11;28.60;99.90
31575;DHT22;18182;1.328;103.810;2022-12-29T01:58:39;28.70;99.90
31575;DHT22;18182;1.328;103.810;2022-12-29T02:01:06;28.80;99.90
31575;DHT22;18182;1.328;103.810;2022-12-29T02:03:33;29.00;99.90
31575;DHT22;18182;1.328;103.810;2022-12-29T02:06:17;29.00;99.90
31575;DHT22;18182;1.328;103.810;2022-12-29T02:08:46;29.10;99.90
31575;DHT22;18182;1.328;103.810;2022-12-29T02:11:12;29.10;99.90
31575;DHT22;18182;1.328;103.810;2022-12-29T02:13:39;29.10;99.90
31575;DHT22;18182;1.328;103.810;2022-12-29T02:18:57;29.10;99.90
31575;DHT22;18182;1.328;103.810;2022-12-29T02:21:41;29.20;99.90
31575;DHT22;18182;1.328;103.810;2022-12-29T02:37:38;29.30;99.90
31575;DHT22;18182;1.328;103.810;2022-12-29T02:42:46;29.40;99.90
31575;DHT22;18182;1.328;103.810;2022-12-29T02:50:37;29.40;99.90
31575;DHT22;18182;1.328;103.810;2022-12-29T02:53:05;29.50;99.90
31575;DHT22;18182;1.328;103.810;2022-12-29T02:55:32;29.50;99.90
31575;DHT22;18182;1.328;103.810;2022-12-29T03:01:27;29.70;99.90
31575;DHT22;18182;1.328;103.810;2022-12-29T03:08:31;30.00;99.90
31575;DHT22;18182;1.328;103.810;2022-12-29T03:18:49;30.50;99.90
31575;DHT22;18182;1.328;103.810;2022-12-29T03:21:20;30.50;99.90
31575;DHT22;18182;1.328;103.810;2022-12-29T03:24:08;30.50;99.90
31575;DHT22;18182;1.328;103.810;2022-12-29T03:26:34;30.40;99.90
31575;DHT22;18182;1.328;103.810;2022-12-29T03:29:01;30.40;99.90
31575;DHT22;18182;1.328;103.810;2022-12-29T03:31:27;30.30;99.90
31575;DHT22;18182;1.328;103.810;2022-12-29T03:33:54;30.20;99.90
31575;DHT22;18182;1.328;103.810;2022-12-29T03:36:26;30.20;99.90
31575;DHT22;18182;1.328;103.810;2022-12-29T03:38:57;30.10;99.90
31575;DHT22;18182;1.328;103.810;2022-12-29T03:41:25;30.20;99.90
31575;DHT22;18182;1.328;103.810;2022-12-29T03:43:53;30.20;99.90
31575;DHT22;18182;1.328;103.810;2022-12-29T03:46:19;30.20;99.90
31575;DHT22;18182;1.328;103.810;2022-12-29T03:48:45;30.20;99.90
31575;DHT22;18182;1.328;103.810;2022-12-29T03:51:11;30.20;99.90
31575;DHT22;18182;1.328;103.810;2022-12-29T03:53:37;30.30;99.90
31575;DHT22;18182;1.328;103.810;2022-12-29T03:56:04;30.30;99.90
31575;DHT22;18182;1.328;103.810;2022-12-29T03:58:30;30.50;99.90
31575;DHT22;18182;1.328;103.810;2022-12-29T04:00:56;30.50;99.90
31575;DHT22;18182;1.328;103.810;2022-12-29T04:03:22;30.50;99.90
31575;DHT22;18182;1.328;103.810;2022-12-29T04:05:48;30.50;99.90
31575;DHT22;18182;1.328;103.810;2022-12-29T04:08:14;30.50;99.90
31575;DHT22;18182;1.328;103.810;2022-12-29T04:10:40;30.60;99.90
31575;DHT22;18182;1.328;103.810;2022-12-29T04:13:07;30.80;99.90
31575;DHT22;18182;1.328;103.810;2022-12-29T04:15:33;30.80;99.90
31575;DHT22;18182;1.328;103.810;2022-12-29T04:17:59;30.80;99.90
31575;DHT22;18182;1.328;103.810;2022-12-29T04:20:25;30.90;99.90
31575;DHT22;18182;1.328;103.810;2022-12-29T04:23:09;30.90;99.90
31575;DHT22;18182;1.328;103.810;2022-12-29T04:25:37;30.90;99.90
31575;DHT22;18182;1.328;103.810;2022-12-29T04:28:03;30.90;99.90
31575;DHT22;18182;1.328;103.810;2022-12-29T04:30:29;30.90;99.90
31575;DHT22;18182;1.328;103.810;2022-12-29T04:32:55;30.90;99.90
31575;DHT22;18182;1.328;103.810;2022-12-29T04:35:22;31.10;99.90
31575;DHT22;18182;1.328;103.810;2022-12-29T04:37:48;31.10;99.90
31575;DHT22;18182;1.328;103.810;2022-12-29T04:40:14;31.20;99.90
31575;DHT22;18182;1.328;103.810;2022-12-29T04:42:40;31.10;99.90
31575;DHT22;18182;1.328;103.810;2022-12-29T04:45:06;31.10;99.90
31575;DHT22;18182;1.328;103.810;2022-12-29T04:47:33;31.10;99.90
31575;DHT22;18182;1.328;103.810;2022-12-29T04:49:59;31.20;99.90
31575;DHT22;18182;1.328;103.810;2022-12-29T04:52:25;31.10;99.90
31575;DHT22;18182;1.328;103.810;2022-12-29T04:54:51;31.10;99.90
31575;DHT22;18182;1.328;103.810;2022-12-29T04:57:17;31.20;99.90
31575;DHT22;18182;1.328;103.810;2022-12-29T04:59:43;31.20;99.90
31575;DHT22;18182;1.328;103.810;2022-12-29T05:02:09;31.20;99.90
31575;DHT22;18182;1.328;103.810;2022-12-29T05:04:35;31.30;99.90
31575;DHT22;18182;1.328;103.810;2022-12-29T05:07:02;31.30;99.90
31575;DHT22;18182;1.328;103.810;2022-12-29T05:09:28;31.40;99.90
31575;DHT22;18182;1.328;103.810;2022-12-29T05:11:55;31.50;99.90
31575;DHT22;18182;1.328;103.810;2022-12-29T05:14:21;31.60;99.90
31575;DHT22;18182;1.328;103.810;2022-12-29T05:16:47;31.40;99.90
31575;DHT22;18182;1.328;103.810;2022-12-29T05:19:14;31.40;99.90
31575;DHT22;18182;1.328;103.810;2022-12-29T05:21:40;31.40;99.90
31575;DHT22;18182;1.328;103.810;2022-12-29T05:24:06;31.40;99.90
31575;DHT22;18182;1.328;103.810;2022-12-29T05:26:32;31.50;99.90
31575;DHT22;18182;1.328;103.810;2022-12-29T05:28:58;31.50;99.90
31575;DHT22;18182;1.328;103.810;2022-12-29T05:31:25;31.60;99.90
31575;DHT22;18182;1.328;103.810;2022-12-29T05:33:51;31.50;99.90
31575;DHT22;18182;1.328;103.810;2022-12-29T05:36:17;31.40;99.90
31575;DHT22;18182;1.328;103.810;2022-12-29T05:38:44;31.30;99.90
31575;DHT22;18182;1.328;103.810;2022-12-29T05:41:10;31.20;99.90
31575;DHT22;18182;1.328;103.810;2022-12-29T05:43:36;31.10;99.90
31575;DHT22;18182;1.328;103.810;2022-12-29T05:46:02;31.10;99.90
31575;DHT22;18182;1.328;103.810;2022-12-29T05:48:29;31.10;99.90
31575;DHT22;18182;1.328;103.810;2022-12-29T05:50:55;31.20;99.90
31575;DHT22;18182;1.328;103.810;2022-12-29T05:53:22;31.10;99.90
31575;DHT22;18182;1.328;103.810;2022-12-29T05:55:48;31.10;99.90
31575;DHT22;18182;1.328;103.810;2022-12-29T05:58:15;31.00;99.90
31575;DHT22;18182;1.328;103.810;2022-12-29T06:00:42;30.90;99.90
31575;DHT22;18182;1.328;103.810;2022-12-29T06:03:08;30.70;99.90
31575;DHT22;18182;1.328;103.810;2022-12-29T06:05:34;30.60;99.90
31575;DHT22;18182;1.328;103.810;2022-12-29T06:08:00;30.40;99.90
31575;DHT22;18182;1.328;103.810;2022-12-29T06:10:26;30.50;99.90
31575;DHT22;18182;1.328;103.810;2022-12-29T06:12:52;30.60;99.90
31575;DHT22;18182;1.328;103.810;2022-12-29T06:15:19;30.70;99.90
31575;DHT22;18182;1.328;103.810;2022-12-29T06:17:45;30.90;99.90
31575;DHT22;18182;1.328;103.810;2022-12-29T06:20:11;31.10;99.90
31575;DHT22;18182;1.328;103.810;2022-12-29T06:22:38;31.30;99.90
31575;DHT22;18182;1.328;103.810;2022-12-29T06:25:04;31.50;99.90
31575;DHT22;18182;1.328;103.810;2022-12-29T06:27:31;31.50;99.90
31575;DHT22;18182;1.328;103.810;2022-12-29T06:29:57;31.60;99.90
31575;DHT22;18182;1.328;103.810;2022-12-29T06:32:23;31.70;99.90
31575;DHT22;18182;1.328;103.810;2022-12-29T06:34:49;31.70;99.90
31575;DHT22;18182;1.328;103.810;2022-12-29T06:37:15;31.60;99.90
31575;DHT22;18182;1.328;103.810;2022-12-29T06:39:41;31.60;99.90
31575;DHT22;18182;1.328;103.810;2022-12-29T06:42:09;31.50;99.90
31575;DHT22;18182;1.328;103.810;2022-12-29T06:44:35;31.50;99.90
31575;DHT22;18182;1.328;103.810;2022-12-29T06:47:01;31.40;99.90
31575;DHT22;18182;1.328;103.810;2022-12-29T06:49:27;31.50;99.90
31575;DHT22;18182;1.328;103.810;2022-12-29T06:51:53;31.60;99.90
31575;DHT22;18182;1.328;103.810;2022-12-29T06:54:19;31.60;99.90
31575;DHT22;18182;1.328;103.810;2022-12-29T06:56:45;31.60;99.90
31575;DHT22;18182;1.328;103.810;2022-12-29T06:59:11;31.60;99.90
31575;DHT22;18182;1.328;103.810;2022-12-29T07:01:38;31.60;99.90
31575;DHT22;18182;1.328;103.810;2022-12-29T07:04:04;31.70;99.90
31575;DHT22;18182;1.328;103.810;2022-12-29T07:06:30;31.70;99.90
31575;DHT22;18182;1.328;103.810;2022-12-29T07:08:56;31.70;99.90
31575;DHT22;18182;1.328;103.810;2022-12-29T07:11:22;31.60;99.90
31575;DHT22;18182;1.328;103.810;2022-12-29T07:13:49;31.40;99.90
31575;DHT22;18182;1.328;103.810;2022-12-29T07:16:15;31.30;99.90
31575;DHT22;18182;1.328;103.810;2022-12-29T07:18:41;31.20;99.90
31575;DHT22;18182;1.328;103.810;2022-12-29T07:21:07;31.10;99.90
31575;DHT22;18182;1.328;103.810;2022-12-29T07:23:33;31.10;99.90
31575;DHT22;18182;1.328;103.810;2022-12-29T07:26:04;31.00;99.90
31575;DHT22;18182;1.328;103.810;2022-12-29T07:28:30;31.00;99.90
31575;DHT22;18182;1.328;103.810;2022-12-29T07:30:58;31.10;99.90
31575;DHT22;18182;1.328;103.810;2022-12-29T07:33:24;31.00;99.90
31575;DHT22;18182;1.328;103.810;2022-12-29T07:35:50;30.90;99.90
31575;DHT22;18182;1.328;103.810;2022-12-29T07:38:16;30.80;99.90
31575;DHT22;18182;1.328;103.810;2022-12-29T07:40:42;30.80;99.90
31575;DHT22;18182;1.328;103.810;2022-12-29T07:43:09;30.80;99.90
31575;DHT22;18182;1.328;103.810;2022-12-29T07:45:35;30.70;99.90
31575;DHT22;18182;1.328;103.810;2022-12-29T07:48:01;30.70;99.90
31575;DHT22;18182;1.328;103.810;2022-12-29T07:50:28;30.70;99.90
31575;DHT22;18182;1.328;103.810;2022-12-29T07:52:54;30.80;99.90
31575;DHT22;18182;1.328;103.810;2022-12-29T07:55:20;30.80;99.90
31575;DHT22;18182;1.328;103.810;2022-12-29T07:57:46;30.80;99.90
31575;DHT22;18182;1.328;103.810;2022-12-29T08:00:12;30.80;99.90
31575;DHT22;18182;1.328;103.810;2022-12-29T08:02:38;31.00;99.90
31575;DHT22;18182;1.328;103.810;2022-12-29T08:05:05;30.90;99.90
31575;DHT22;18182;1.328;103.810;2022-12-29T08:07:31;30.70;99.90
31575;DHT22;18182;1.328;103.810;2022-12-29T08:09:57;30.50;99.90
31575;DHT22;18182;1.328;103.810;2022-12-29T08:12:23;30.30;99.90
31575;DHT22;18182;1.328;103.810;2022-12-29T08:14:49;30.20;99.90
31575;DHT22;18182;1.328;103.810;2022-12-29T08:17:15;30.10;99.90
31575;DHT22;18182;1.328;103.810;2022-12-29T08:19:42;29.90;99.90
31575;DHT22;18182;1.328;103.810;2022-12-29T08:22:08;29.80;99.90
31575;DHT22;18182;1.328;103.810;2022-12-29T08:24:34;29.70;99.90
31575;DHT22;18182;1.328;103.810;2022-12-29T08:27:00;29.50;99.90
31575;DHT22;18182;1.328;103.810;2022-12-29T08:29:27;29.50;99.90
31575;DHT22;18182;1.328;103.810;2022-12-29T08:31:53;29.50;99.90
31575;DHT22;18182;1.328;103.810;2022-12-29T08:34:19;29.40;99.90
31575;DHT22;18182;1.328;103.810;2022-12-29T08:36:45;29.40;99.90
31575;DHT22;18182;1.328;103.810;2022-12-29T08:39:11;29.40;99.90
31575;DHT22;18182;1.328;103.810;2022-12-29T08:41:38;29.40;99.90
31575;DHT22;18182;1.328;103.810;2022-12-29T08:44:04;29.40;99.90
31575;DHT22;18182;1.328;103.810;2022-12-29T08:46:31;29.40;99.90
31575;DHT22;18182;1.328;103.810;2022-12-29T08:48:57;29.40;99.90
31575;DHT22;18182;1.328;103.810;2022-12-29T08:51:23;29.30;99.90
31575;DHT22;18182;1.328;103.810;2022-12-29T08:53:49;29.30;99.90
31575;DHT22;18182;1.328;103.810;2022-12-29T08:56:16;29.30;99.90
31575;DHT22;18182;1.328;103.810;2022-12-29T08:58:42;29.20;99.90
31575;DHT22;18182;1.328;103.810;2022-12-29T09:01:08;29.20;99.90
31575;DHT22;18182;1.328;103.810;2022-12-29T09:03:35;29.20;99.90
31575;DHT22;18182;1.328;103.810;2022-12-29T09:06:01;29.10;99.90
31575;DHT22;18182;1.328;103.810;2022-12-29T09:08:27;29.00;99.90
31575;DHT22;18182;1.328;103.810;2022-12-29T09:10:53;29.00;99.90
31575;DHT22;18182;1.328;103.810;2022-12-29T09:13:19;29.00;99.90
31575;DHT22;18182;1.328;103.810;2022-12-29T09:15:46;29.00;99.90
31575;DHT22;18182;1.328;103.810;2022-12-29T09:18:12;29.10;99.90
31575;DHT22;18182;1.328;103.810;2022-12-29T09:20:38;29.10;99.90
31575;DHT22;18182;1.328;103.810;2022-12-29T09:23:04;29.10;99.90
31575;DHT22;18182;1.328;103.810;2022-12-29T09:25:31;29.10;99.90
31575;DHT22;18182;1.328;103.810;2022-12-29T09:27:57;29.00;99.90
31575;DHT22;18182;1.328;103.810;2022-12-29T09:30:24;29.00;99.90
31575;DHT22;18182;1.328;103.810;2022-12-29T09:32:50;29.00;99.90
31575;DHT22;18182;1.328;103.810;2022-12-29T09:35:16;29.00;99.90
31575;DHT22;18182;1.328;103.810;2022-12-29T09:37:42;28.90;99.90
31575;DHT22;18182;1.328;103.810;2022-12-29T09:40:22;28.90;99.90
31575;DHT22;18182;1.328;103.810;2022-12-29T09:48:02;28.90;99.90
31575;DHT22;18182;1.328;103.810;2022-12-29T09:50:35;28.80;99.90
31575;DHT22;18182;1.328;103.810;2022-12-29T09:55:38;28.50;99.90
31575;DHT22;18182;1.328;103.810;2022-12-29T09:58:12;28.50;99.90
31575;DHT22;18182;1.328;103.810;2022-12-29T10:03:24;28.60;99.90
31575;DHT22;18182;1.328;103.810;2022-12-29T10:06:06;28.60;99.90
31575;DHT22;18182;1.328;103.810;2022-12-29T10:08:37;28.70;99.90
31575;DHT22;18182;1.328;103.810;2022-12-29T10:16:18;28.80;99.90
31575;DHT22;18182;1.328;103.810;2022-12-29T10:23:59;28.70;99.90
31575;DHT22;18182;1.328;103.810;2022-12-29T10:26:28;28.70;99.90
31575;DHT22;18182;1.328;103.810;2022-12-29T10:28:57;28.70;99.90
31575;DHT22;18182;1.328;103.810;2022-12-29T10:31:58;28.70;99.90
31575;DHT22;18182;1.328;103.810;2022-12-29T10:36:57;28.80;99.90
31575;DHT22;18182;1.328;103.810;2022-12-29T10:44:41;28.70;99.90
31575;DHT22;18182;1.328;103.810;2022-12-29T10:47:10;28.70;99.90
31575;DHT22;18182;1.328;103.810;2022-12-29T10:49:39;28.70;99.90
31575;DHT22;18182;1.328;103.810;2022-12-29T10:52:06;28.70;99.90
31575;DHT22;18182;1.328;103.810;2022-12-29T10:54:54;28.70;99.90
31575;DHT22;18182;1.328;103.810;2022-12-29T10:59:48;28.70;99.90
31575;DHT22;18182;1.328;103.810;2022-12-29T11:02:40;28.70;99.90
31575;DHT22;18182;1.328;103.810;2022-12-29T11:07:30;28.50;99.90
31575;DHT22;18182;1.328;103.810;2022-12-29T11:10:15;28.50;99.90
31575;DHT22;18182;1.328;103.810;2022-12-29T11:12:42;28.50;99.90
31575;DHT22;18182;1.328;103.810;2022-12-29T11:15:19;28.50;99.90
31575;DHT22;18182;1.328;103.810;2022-12-29T11:17:50;28.60;99.90
31575;DHT22;18182;1.328;103.810;2022-12-29T11:20:36;28.60;99.90
31575;DHT22;18182;1.328;103.810;2022-12-29T11:23:03;28.60;99.90
31575;DHT22;18182;1.328;103.810;2022-12-29T11:25:30;28.60;99.90
31575;DHT22;18182;1.328;103.810;2022-12-29T11:28:04;28.60;99.90
31575;DHT22;18182;1.328;103.810;2022-12-29T11:30:39;28.60;99.90
31575;DHT22;18182;1.328;103.810;2022-12-29T11:33:05;28.60;99.90
31575;DHT22;18182;1.328;103.810;2022-12-29T11:35:36;28.60;99.90
31575;DHT22;18182;1.328;103.810;2022-12-29T11:38:02;28.60;99.90
31575;DHT22;18182;1.328;103.810;2022-12-29T11:40:29;28.60;99.90
31575;DHT22;18182;1.328;103.810;2022-12-29T11:42:58;28.60;99.90
31575;DHT22;18182;1.328;103.810;2022-12-29T11:45:29;28.70;99.90
31575;DHT22;18182;1.328;103.810;2022-12-29T11:48:05;28.60;99.90
31575;DHT22;18182;1.328;103.810;2022-12-29T11:50:33;28.60;99.90
31575;DHT22;18182;1.328;103.810;2022-12-29T11:53:01;28.60;99.90
31575;DHT22;18182;1.328;103.810;2022-12-29T11:55:28;28.60;99.90
31575;DHT22;18182;1.328;103.810;2022-12-29T11:57:55;28.50;99.90
31575;DHT22;18182;1.328;103.810;2022-12-29T12:00:23;28.50;99.90
31575;DHT22;18182;1.328;103.810;2022-12-29T12:02:53;28.50;99.90
31575;DHT22;18182;1.328;103.810;2022-12-29T12:05:24;28.50;99.90
31575;DHT22;18182;1.328;103.810;2022-12-29T12:10:34;28.50;99.90
31575;DHT22;18182;1.328;103.810;2022-12-29T12:13:11;28.50;99.90
31575;DHT22;18182;1.328;103.810;2022-12-29T12:15:42;28.50;99.90
31575;DHT22;18182;1.328;103.810;2022-12-29T12:18:15;28.50;99.90
31575;DHT22;18182;1.328;103.810;2022-12-29T12:20:57;28.50;99.90
31575;DHT22;18182;1.328;103.810;2022-12-29T12:26:12;28.40;99.90
31575;DHT22;18182;1.328;103.810;2022-12-29T12:28:52;28.40;99.90
31575;DHT22;18182;1.328;103.810;2022-12-29T12:31:28;28.40;99.90
31575;DHT22;18182;1.328;103.810;2022-12-29T12:33:58;28.40;99.90
31575;DHT22;18182;1.328;103.810;2022-12-29T12:41:38;28.40;99.90
31575;DHT22;18182;1.328;103.810;2022-12-29T12:44:11;28.40;99.90
31575;DHT22;18182;1.328;103.810;2022-12-29T13:09:58;28.50;99.90
31575;DHT22;18182;1.328;103.810;2022-12-29T13:13:12;28.60;99.90
31575;DHT22;18182;1.328;103.810;2022-12-29T13:25:37;28.70;99.90
31575;DHT22;18182;1.328;103.810;2022-12-29T13:30:34;28.60;99.90
31575;DHT22;18182;1.328;103.810;2022-12-29T13:35:50;28.60;99.90
31575;DHT22;18182;1.328;103.810;2022-12-29T13:40:50;28.70;99.90
31575;DHT22;18182;1.328;103.810;2022-12-29T13:43:17;28.70;99.90
31575;DHT22;18182;1.328;103.810;2022-12-29T13:45:45;28.70;99.90
31575;DHT22;18182;1.328;103.810;2022-12-29T13:48:15;28.60;99.90
31575;DHT22;18182;1.328;103.810;2022-12-29T13:50:43;28.60;99.90
31575;DHT22;18182;1.328;103.810;2022-12-29T14:01:00;28.40;99.90
31575;DHT22;18182;1.328;103.810;2022-12-29T14:04:12;28.30;99.90
31575;DHT22;18182;1.328;103.810;2022-12-29T14:06:23;28.30;99.90
31575;DHT22;18182;1.328;103.810;2022-12-29T14:08:56;28.20;99.90
31575;DHT22;18182;1.328;103.810;2022-12-29T14:11:24;28.20;99.90
31575;DHT22;18182;1.328;103.810;2022-12-29T14:13:54;28.20;99.90
31575;DHT22;18182;1.328;103.810;2022-12-29T14:16:53;28.10;99.90
31575;DHT22;18182;1.328;103.810;2022-12-29T14:19:14;28.20;99.90
31575;DHT22;18182;1.328;103.810;2022-12-29T14:21:49;28.20;99.90
31575;DHT22;18182;1.328;103.810;2022-12-29T14:24:58;28.30;99.90
31575;DHT22;18182;1.328;103.810;2022-12-29T14:27:52;28.30;99.90
31575;DHT22;18182;1.328;103.810;2022-12-29T14:29:51;28.30;99.90
31575;DHT22;18182;1.328;103.810;2022-12-29T14:34:47;28.20;99.90
31575;DHT22;18182;1.328;103.810;2022-12-29T14:37:27;28.20;99.90
31575;DHT22;18182;1.328;103.810;2022-12-29T14:40:14;28.20;99.90
31575;DHT22;18182;1.328;103.810;2022-12-29T14:42:47;28.20;99.90
31575;DHT22;18182;1.328;103.810;2022-12-29T14:47:44;28.20;99.90
31575;DHT22;18182;1.328;103.810;2022-12-29T14:52:46;28.20;99.90
31575;DHT22;18182;1.328;103.810;2022-12-29T14:57:51;28.20;99.90
31575;DHT22;18182;1.328;103.810;2022-12-29T15:00:21;28.20;99.90
31575;DHT22;18182;1.328;103.810;2022-12-29T15:02:54;28.10;99.90
31575;DHT22;18182;1.328;103.810;2022-12-29T15:05:32;28.10;99.90
31575;DHT22;18182;1.328;103.810;2022-12-29T15:07:59;28.00;99.90
31575;DHT22;18182;1.328;103.810;2022-12-29T15:10:26;27.90;99.90
31575;DHT22;18182;1.328;103.810;2022-12-29T15:12:53;27.90;99.90
31575;DHT22;18182;1.328;103.810;2022-12-29T15:15:22;27.90;99.90
31575;DHT22;18182;1.328;103.810;2022-12-29T15:17:48;27.90;99.90
31575;DHT22;18182;1.328;103.810;2022-12-29T15:20:26;28.00;99.90
31575;DHT22;18182;1.328;103.810;2022-12-29T15:23:00;28.10;99.90
31575;DHT22;18182;1.328;103.810;2022-12-29T15:25:27;28.10;99.90
31575;DHT22;18182;1.328;103.810;2022-12-29T15:28:01;28.10;99.90
31575;DHT22;18182;1.328;103.810;2022-12-29T15:30:27;28.10;99.90
31575;DHT22;18182;1.328;103.810;2022-12-29T15:32:53;28.10;99.90
31575;DHT22;18182;1.328;103.810;2022-12-29T15:35:27;28.10;99.90
31575;DHT22;18182;1.328;103.810;2022-12-29T15:37:54;28.10;99.90
31575;DHT22;18182;1.328;103.810;2022-12-29T15:40:27;28.10;99.90
31575;DHT22;18182;1.328;103.810;2022-12-29T15:45:39;28.00;99.90
31575;DHT22;18182;1.328;103.810;2022-12-29T15:48:07;28.00;99.90
31575;DHT22;18182;1.328;103.810;2022-12-29T15:50:39;27.90;99.90
31575;DHT22;18182;1.328;103.810;2022-12-29T15:53:12;27.90;99.90
31575;DHT22;18182;1.328;103.810;2022-12-29T15:55:39;27.90;99.90
31575;DHT22;18182;1.328;103.810;2022-12-29T15:58:17;27.90;99.90
31575;DHT22;18182;1.328;103.810;2022-12-29T16:00:48;27.90;99.90
31575;DHT22;18182;1.328;103.810;2022-12-29T16:03:15;27.90;99.90
31575;DHT22;18182;1.328;103.810;2022-12-29T16:05:42;27.90;99.90
31575;DHT22;18182;1.328;103.810;2022-12-29T16:10:47;28.00;99.90
31575;DHT22;18182;1.328;103.810;2022-12-29T16:13:18;28.00;99.90
31575;DHT22;18182;1.328;103.810;2022-12-29T16:15:45;28.00;99.90
31575;DHT22;18182;1.328;103.810;2022-12-29T16:18:25;28.00;99.90
31575;DHT22;18182;1.328;103.810;2022-12-29T16:20:51;27.90;99.90
31575;DHT22;18182;1.328;103.810;2022-12-29T16:23:19;27.90;99.90
31575;DHT22;18182;1.328;103.810;2022-12-29T16:25:46;27.90;99.90
31575;DHT22;18182;1.328;103.810;2022-12-29T16:28:15;27.90;99.90
31575;DHT22;18182;1.328;103.810;2022-12-29T16:30:42;27.90;99.90
31575;DHT22;18182;1.328;103.810;2022-12-29T16:35:53;27.90;99.90
31575;DHT22;18182;1.328;103.810;2022-12-29T16:38:20;27.90;99.90
31575;DHT22;18182;1.328;103.810;2022-12-29T16:40:50;27.90;99.90
31575;DHT22;18182;1.328;103.810;2022-12-29T16:43:21;27.90;99.90
31575;DHT22;18182;1.328;103.810;2022-12-29T16:50:40;27.90;99.90
31575;DHT22;18182;1.328;103.810;2022-12-29T16:53:20;27.90;99.90
31575;DHT22;18182;1.328;103.810;2022-12-29T16:55:48;27.90;99.90
31575;DHT22;18182;1.328;103.810;2022-12-29T16:58:24;27.90;99.90
31575;DHT22;18182;1.328;103.810;2022-12-29T17:00:55;27.90;99.90
31575;DHT22;18182;1.328;103.810;2022-12-29T17:03:23;27.90;99.90
31575;DHT22;18182;1.328;103.810;2022-12-29T17:05:51;27.90;99.90
31575;DHT22;18182;1.328;103.810;2022-12-29T17:08:19;27.90;99.90
31575;DHT22;18182;1.328;103.810;2022-12-29T17:10:55;27.80;99.90
31575;DHT22;18182;1.328;103.810;2022-12-29T17:13:39;27.80;99.90
31575;DHT22;18182;1.328;103.810;2022-12-29T17:16:06;27.80;99.90
31575;DHT22;18182;1.328;103.810;2022-12-29T17:18:33;27.80;99.90
31575;DHT22;18182;1.328;103.810;2022-12-29T17:20:59;27.80;99.90
31575;DHT22;18182;1.328;103.810;2022-12-29T17:23:25;27.80;99.90
31575;DHT22;18182;1.328;103.810;2022-12-29T17:25:52;27.90;99.90
31575;DHT22;18182;1.328;103.810;2022-12-29T17:28:26;27.90;99.90
31575;DHT22;18182;1.328;103.810;2022-12-29T17:30:52;27.90;99.90
31575;DHT22;18182;1.328;103.810;2022-12-29T17:33:19;27.90;99.90
31575;DHT22;18182;1.328;103.810;2022-12-29T17:35:46;27.90;99.90
31575;DHT22;18182;1.328;103.810;2022-12-29T17:40:39;27.90;99.90
31575;DHT22;18182;1.328;103.810;2022-12-29T17:43:05;27.90;99.90
31575;DHT22;18182;1.328;103.810;2022-12-29T17:45:31;27.90;99.90
31575;DHT22;18182;1.328;103.810;2022-12-29T17:47:58;27.90;99.90
31575;DHT22;18182;1.328;103.810;2022-12-29T17:50:28;27.90;99.90
31575;DHT22;18182;1.328;103.810;2022-12-29T17:52:58;27.90;99.90
31575;DHT22;18182;1.328;103.810;2022-12-29T17:55:25;27.90;99.90
31575;DHT22;18182;1.328;103.810;2022-12-29T17:57:51;27.90;99.90
31575;DHT22;18182;1.328;103.810;2022-12-29T18:00:19;27.90;99.90
31575;DHT22;18182;1.328;103.810;2022-12-29T18:02:46;27.90;99.90
31575;DHT22;18182;1.328;103.810;2022-12-29T18:05:14;27.80;99.90
31575;DHT22;18182;1.328;103.810;2022-12-29T18:07:42;27.80;99.90
31575;DHT22;18182;1.328;103.810;2022-12-29T18:10:08;27.80;99.90